Time;durP1;ratioP1;P1;durP2;ratioP2;P2;SDS_P1;SDS_P2;PMS_P1;PMS_P2;Temp;Humidity;BMP_temperature;BMP_pressure;BME280_temperature;BME280_humidity;BME280_pressure;Samples;Min_cycle;Max_cycle;Signal;HPM_P1;HPM_P2
2023/12/25 00:03:30;;;;;;;3.72;1.00;;;;;;;18.74;71.82;99684.25;20881274;28;20409;-68
2023/12/25 00:13:47;;;;;;;3.63;1.33;;;;;;;18.74;71.30;99705.81;20866560;28;20041;-68
2023/12/25 00:23:48;;;;;;;4.07;1.45;;;;;;;18.73;71.33;99710.34;20856684;28;20048;-68
2023/12/25 00:33:50;;;;;;;5.47;1.27;;;;;;;18.72;71.07;99718.63;20838899;28;20044;-68
2023/12/25 00:43:52;;;;;;;2.40;0.95;;;;;;;18.69;70.93;99726.03;20825765;28;20049;-68
2023/12/25 00:53:54;;;;;;;2.83;0.95;;;;;;;18.66;70.48;99721.00;20838647;28;20103;-68
2023/12/25 01:03:57;;;;;;;3.55;1.42;;;;;;;18.68;70.40;99729.75;20863623;28;20055;-68
2023/12/25 01:14:00;;;;;;;2.78;0.95;;;;;;;18.68;69.92;99736.97;20833039;28;20072;-68
2023/12/25 01:24:01;;;;;;;4.00;1.48;;;;;;;18.67;69.61;99743.38;20819789;28;20110;-68
2023/12/25 01:34:03;;;;;;;3.92;1.33;;;;;;;18.63;69.47;99732.13;20833668;28;20520;-68
2023/12/25 01:44:05;;;;;;;2.97;1.10;;;;;;;18.61;69.06;99753.00;20837232;28;20522;-68
2023/12/25 01:54:20;;;;;;;3.90;1.20;;;;;;;18.62;69.19;99765.47;20825512;28;20053;-68
2023/12/25 02:04:22;;;;;;;2.55;0.88;;;;;;;18.60;68.82;99786.38;20793549;28;20044;-68
2023/12/25 02:14:24;;;;;;;2.38;0.88;;;;;;;18.59;68.68;99792.78;20814259;28;20142;-68
2023/12/25 02:24:33;;;;;;;3.22;1.17;;;;;;;18.59;68.31;99808.94;20825832;28;20068;-68
2023/12/25 02:34:35;;;;;;;2.90;0.90;;;;;;;18.57;68.15;99789.41;20805656;28;20041;-68
2023/12/25 02:44:36;;;;;;;3.33;0.95;;;;;;;18.55;67.98;99794.09;20804250;28;20049;-68
2023/12/25 02:54:38;;;;;;;3.55;1.05;;;;;;;18.53;67.76;99809.59;20794458;28;20421;-68
2023/12/25 03:04:41;;;;;;;4.30;1.08;;;;;;;18.53;67.56;99790.72;20812852;28;20049;-68
2023/12/25 03:14:42;;;;;;;3.17;1.10;;;;;;;18.50;67.38;99813.47;20825220;28;20502;-68
2023/12/25 03:24:44;;;;;;;4.15;1.23;;;;;;;18.45;67.37;99817.66;20835061;28;20057;-68
2023/12/25 03:34:48;;;;;;;3.28;0.88;;;;;;;18.49;67.33;99832.50;20821696;28;20056;-69
2023/12/25 03:44:49;;;;;;;2.03;0.70;;;;;;;18.46;66.92;99825.59;20819974;28;20049;-69
2023/12/25 03:54:51;;;;;;;1.75;0.65;;;;;;;18.50;66.75;99850.34;20806800;28;20422;-68
2023/12/25 04:04:53;;;;;;;3.05;0.82;;;;;;;18.52;66.47;99856.41;20844572;28;20566;-68
2023/12/25 04:14:55;;;;;;;2.30;0.77;;;;;;;18.54;66.24;99867.88;20844886;28;20073;-68
2023/12/25 04:24:56;;;;;;;2.53;0.85;;;;;;;18.51;65.94;99869.06;20821742;28;20150;-68
2023/12/25 04:34:58;;;;;;;2.58;0.90;;;;;;;18.58;65.73;99887.25;20857401;28;20846;-68
2023/12/25 04:45:00;;;;;;;2.35;0.60;;;;;;;18.59;65.42;99889.81;20844874;28;20575;-68
2023/12/25 04:55:03;;;;;;;1.60;0.60;;;;;;;18.64;65.42;99906.31;20832164;28;20060;-68
2023/12/25 05:05:05;;;;;;;2.25;0.80;;;;;;;18.65;65.26;99918.78;20793286;28;20065;-68
2023/12/25 05:15:07;;;;;;;1.63;0.60;;;;;;;18.68;65.21;99902.28;20819646;28;20046;-68
2023/12/25 05:25:09;;;;;;;1.50;0.55;;;;;;;18.69;65.08;99903.97;20820799;28;20057;-68
2023/12/25 05:35:11;;;;;;;1.23;0.57;;;;;;;18.73;64.89;99928.72;20845838;28;20165;-69
2023/12/25 05:45:13;;;;;;;1.58;0.50;;;;;;;18.61;64.86;99927.38;20856372;28;20057;-69
2023/12/25 05:55:15;;;;;;;1.90;0.55;;;;;;;18.75;64.77;99950.16;20836668;28;20094;-68
2023/12/25 06:05:16;;;;;;;1.05;0.40;;;;;;;18.76;64.38;99955.34;20834803;28;20048;-68
2023/12/25 06:15:18;;;;;;;2.33;0.60;;;;;;;18.74;64.36;99959.25;20852617;28;20059;-68
2023/12/25 06:25:20;;;;;;;2.45;0.70;;;;;;;18.79;64.45;99978.47;20837608;28;20468;-68
2023/12/25 06:35:22;;;;;;;2.92;0.57;;;;;;;18.75;64.29;99979.81;20822647;28;20048;-69
2023/12/25 06:45:24;;;;;;;1.08;0.50;;;;;;;18.82;63.77;99988.91;20822600;28;20057;-68
2023/12/25 06:55:26;;;;;;;1.30;0.47;;;;;;;18.81;63.91;99998.03;20827995;28;20146;-68
2023/12/25 07:05:28;;;;;;;1.83;0.50;;;;;;;18.82;63.68;99997.00;20830739;28;20045;-68
2023/12/25 07:15:30;;;;;;;2.83;0.70;;;;;;;18.83;63.31;100017.56;20826603;28;20073;-68
2023/12/25 07:25:31;;;;;;;1.75;0.60;;;;;;;18.82;63.36;100038.31;20832886;28;20045;-68
2023/12/25 07:35:33;;;;;;;1.90;0.60;;;;;;;18.81;63.41;100051.94;20847321;28;20060;-68
2023/12/25 07:45:35;;;;;;;4.63;1.13;;;;;;;18.82;63.29;100048.25;20845104;28;20128;-68
2023/12/25 07:55:40;;;;;;;1.08;0.50;;;;;;;18.81;63.38;100058.19;20828434;28;20067;-69
2023/12/25 08:05:41;;;;;;;2.03;0.60;;;;;;;18.82;63.17;100056.34;20847231;28;20515;-68
2023/12/25 08:15:43;;;;;;;2.80;0.85;;;;;;;18.84;62.85;100081.28;20838484;28;20044;-68
2023/12/25 08:25:45;;;;;;;2.22;0.82;;;;;;;18.84;62.96;100083.97;20877893;28;20092;-68
2023/12/25 08:35:47;;;;;;;1.83;0.63;;;;;;;18.84;62.82;100108.25;20853526;28;20049;-69
2023/12/25 08:45:49;;;;;;;2.70;0.80;;;;;;;18.86;62.46;100102.72;20842485;28;20052;-69
2023/12/25 08:55:51;;;;;;;1.35;0.73;;;;;;;18.82;62.44;100104.88;20851299;28;20052;-68
2023/12/25 09:05:54;;;;;;;2.47;0.65;;;;;;;18.91;62.23;100124.66;20810162;28;20517;-69
2023/12/25 09:15:56;;;;;;;1.95;0.68;;;;;;;18.83;62.95;100122.75;20845264;28;20044;-66
2023/12/25 09:25:58;;;;;;;2.67;0.85;;;;;;;18.83;63.96;100138.91;20816389;28;20059;-68
2023/12/25 09:36:00;;;;;;;2.58;0.80;;;;;;;18.91;63.85;100176.72;20811688;28;20424;-68
2023/12/25 09:46:02;;;;;;;1.60;0.90;;;;;;;18.97;64.13;100181.50;20812601;28;20726;-68
2023/12/25 09:56:06;;;;;;;1.60;0.60;;;;;;;19.10;64.00;100191.00;20842275;28;20053;-68
2023/12/25 10:06:08;;;;;;;2.67;1.33;;;;;;;19.17;64.84;100197.44;20838648;28;20053;-69
2023/12/25 10:16:10;;;;;;;3.47;1.10;;;;;;;19.17;63.96;100194.75;20836907;28;20072;-68
2023/12/25 10:26:12;;;;;;;8.57;4.78;;;;;;;19.17;64.13;100185.78;20836835;28;20448;-67
2023/12/25 10:36:13;;;;;;;13.55;9.00;;;;;;;19.24;64.93;100213.84;20828232;28;20060;-71
2023/12/25 10:46:19;;;;;;;11.93;7.10;;;;;;;19.25;65.96;100200.19;20801671;28;20045;-69
2023/12/25 10:56:22;;;;;;;5.72;3.78;;;;;;;19.29;64.72;100195.31;20816824;28;20044;-69
2023/12/25 11:06:24;;;;;;;4.60;2.00;;;;;;;19.26;64.48;100207.25;20805234;28;20049;-69
2023/12/25 11:16:27;;;;;;;3.35;1.02;;;;;;;19.23;64.21;100212.16;20816049;28;20049;-69
2023/12/25 11:26:29;;;;;;;2.58;0.90;;;;;;;19.26;63.80;100201.88;20806695;28;20536;-69
2023/12/25 11:36:31;;;;;;;2.55;0.80;;;;;;;19.17;63.66;100183.97;20810499;28;20126;-69
2023/12/25 11:46:37;;;;;;;1.80;0.70;;;;;;;19.37;63.47;100202.56;20829081;28;20107;-69
2023/12/25 11:56:39;;;;;;;1.77;0.73;;;;;;;19.46;62.97;100185.41;20809157;28;20924;-70
2023/12/25 12:06:41;;;;;;;2.58;0.70;;;;;;;19.56;63.17;100172.63;20815745;28;20579;-70
2023/12/25 12:16:43;;;;;;;2.78;0.80;;;;;;;19.59;63.23;100151.69;20821389;28;20044;-67
2023/12/25 12:26:45;;;;;;;1.73;0.70;;;;;;;20.19;61.68;100144.31;20811759;28;20754;-69
2023/12/25 12:37:00;;;;;;;1.45;0.60;;;;;;;20.17;61.96;100160.72;20833653;28;20060;-71
2023/12/25 12:47:01;;;;;;;;;;;;;;;20.02;62.45;100170.50;20844036;28;20045;-68
2023/12/25 12:57:03;;;;;;;2.92;1.10;;;;;;;19.86;62.46;100169.47;20812559;28;19975;-67
2023/12/25 13:07:06;;;;;;;2.03;0.70;;;;;;;19.85;63.10;100174.00;20803135;28;20074;-66
2023/12/25 13:17:11;;;;;;;2.58;0.90;;;;;;;19.86;63.07;100172.97;20820513;28;20520;-67
2023/12/25 13:27:13;;;;;;;2.80;0.80;;;;;;;19.91;63.35;100172.53;20824015;28;20516;-67
2023/12/25 13:37:15;;;;;;;1.85;0.60;;;;;;;19.97;63.55;100141.31;20795441;28;20119;-66
2023/12/25 13:47:17;;;;;;;1.45;0.63;;;;;;;20.00;63.31;100151.78;20823045;28;20057;-65
2023/12/25 13:57:18;;;;;;;1.23;0.60;;;;;;;20.02;63.56;100167.81;20793447;28;20056;-67
2023/12/25 14:07:20;;;;;;;2.33;0.63;;;;;;;19.99;63.79;100163.59;20796880;28;20486;-67
2023/12/25 14:17:22;;;;;;;2.25;0.70;;;;;;;19.95;64.24;100167.66;20806977;28;20053;-66
2023/12/25 14:27:24;;;;;;;1.50;0.63;;;;;;;19.95;64.17;100175.75;20801494;28;20672;-65
2023/12/25 14:37:26;;;;;;;2.53;0.80;;;;;;;19.79;64.47;100163.03;20790576;28;20045;-66
2023/12/25 14:47:28;;;;;;;2.47;0.82;;;;;;;19.90;64.90;100178.09;20819291;28;20049;-67
2023/12/25 14:57:30;;;;;;;8.55;0.95;;;;;;;19.90;69.52;100183.50;20804916;28;20041;-73
2023/12/25 15:07:32;;;;;;;6.50;1.00;;;;;;;19.99;75.60;100196.00;20817860;28;20641;-71
2023/12/25 15:17:33;;;;;;;9.48;5.40;;;;;;;20.20;76.54;100186.56;20821011;28;20728;-71
2023/12/25 15:27:35;;;;;;;8.20;4.97;;;;;;;20.40;76.27;100187.91;20799676;28;20522;-69
2023/12/25 15:37:37;;;;;;;6.55;4.45;;;;;;;20.43;75.76;100190.28;20801897;28;20081;-68
2023/12/25 15:47:39;;;;;;;7.25;3.20;;;;;;;20.41;75.52;100194.16;20785927;28;20081;-69
2023/12/25 15:57:41;;;;;;;5.07;2.67;;;;;;;20.25;75.65;100193.16;20777288;28;20048;-72
2023/12/25 16:07:45;;;;;;;4.45;2.55;;;;;;;20.18;74.64;100191.28;20810499;28;20647;-68
2023/12/25 16:17:47;;;;;;;3.95;1.90;;;;;;;20.04;74.00;100187.38;20804594;28;20050;-70
2023/12/25 16:27:49;;;;;;;5.53;1.77;;;;;;;19.98;73.75;100178.13;20831266;28;20099;-73
2023/12/25 16:37:51;;;;;;;2.47;1.33;;;;;;;19.86;74.84;100169.47;20811371;28;20052;-71
2023/12/25 16:47:54;;;;;;;3.63;2.08;;;;;;;19.85;74.85;100156.97;20823707;28;20506;-70
2023/12/25 16:57:58;;;;;;;7.97;3.38;;;;;;;19.92;75.37;100160.72;20812157;28;20167;-76
2023/12/25 17:08:00;;;;;;;12.90;4.70;;;;;;;20.07;76.54;100158.19;20798586;28;20386;-75
2023/12/25 17:18:03;;;;;;;17.02;6.28;;;;;;;20.18;78.60;100157.00;20810050;28;20084;-69
2023/12/25 17:28:05;;;;;;;22.02;8.63;;;;;;;20.26;81.91;100158.84;20818854;28;20091;-66
2023/12/25 17:38:07;;;;;;;17.58;6.75;;;;;;;20.25;82.11;100159.84;20810383;28;20162;-67
2023/12/25 17:48:09;;;;;;;12.55;4.78;;;;;;;20.20;81.20;100168.50;20799218;28;20607;-67
2023/12/25 17:58:11;;;;;;;9.40;4.50;;;;;;;20.15;80.37;100157.34;20803017;28;20096;-66
2023/12/25 18:08:13;;;;;;;6.57;2.75;;;;;;;20.11;80.35;100151.44;20803600;28;20685;-67
2023/12/25 18:18:14;;;;;;;6.57;3.13;;;;;;;20.08;79.93;100145.50;20788250;28;20076;-69
2023/12/25 18:28:16;;;;;;;8.00;2.08;;;;;;;20.04;79.17;100139.63;20775579;28;20903;-71
2023/12/25 18:38:18;;;;;;;5.88;1.70;;;;;;;20.02;78.16;100121.88;20806576;28;20483;-67
2023/12/25 18:48:21;;;;;;;6.80;1.40;;;;;;;20.02;79.57;100120.03;20790445;28;20049;-72
2023/12/25 18:58:23;;;;;;;3.30;1.27;;;;;;;19.93;77.41;100104.84;20810558;28;20490;-71
2023/12/25 19:08:24;;;;;;;3.25;1.10;;;;;;;19.82;76.31;100068.16;20808201;28;20408;-69
2023/12/25 19:18:26;;;;;;;6.30;1.60;;;;;;;19.93;76.86;100102.13;20803392;28;20068;-67
2023/12/25 19:28:28;;;;;;;3.40;1.52;;;;;;;19.98;79.14;100073.59;20821007;28;20053;-73
2023/12/25 19:38:30;;;;;;;3.00;1.00;;;;;;;19.99;79.55;100066.34;20823522;28;20627;-70
2023/12/25 19:48:32;;;;;;;10.65;4.82;;;;;;;20.01;79.86;100075.13;20827897;28;20050;-66
2023/12/25 19:58:34;;;;;;;40.08;22.48;;;;;;;19.91;77.10;100071.75;20852228;28;20868;-68
2023/12/25 20:08:36;;;;;;;33.35;19.40;;;;;;;19.73;75.70;100070.03;20844828;28;20109;-66
2023/12/25 20:18:38;;;;;;;33.35;16.23;;;;;;;19.21;75.39;100003.69;20851176;28;20044;-66
2023/12/25 20:28:40;;;;;;;30.90;14.63;;;;;;;19.36;75.16;100033.56;20835477;28;20059;-66
2023/12/25 20:38:42;;;;;;;24.48;12.77;;;;;;;19.23;75.04;99997.13;20839865;28;20055;-67
2023/12/25 20:48:44;;;;;;;22.77;12.10;;;;;;;19.18;74.94;99983.28;20825773;28;21376;-66
2023/12/25 20:58:46;;;;;;;22.58;11.35;;;;;;;19.10;74.76;99996.78;20827611;28;20045;-66
2023/12/25 21:08:51;;;;;;;17.70;9.98;;;;;;;19.03;74.28;99977.69;20828205;28;20086;-67
2023/12/25 21:18:53;;;;;;;19.73;8.80;;;;;;;18.96;74.03;99980.19;20824671;28;20084;-67
2023/12/25 21:28:56;;;;;;;12.07;6.75;;;;;;;18.89;74.24;99978.31;20825846;28;20060;-66
2023/12/25 21:38:57;;;;;;;17.77;8.82;;;;;;;18.81;73.94;99981.84;20818059;28;20060;-66
2023/12/25 21:48:59;;;;;;;13.18;6.97;;;;;;;18.79;77.72;99984.72;20808819;28;20199;-66
2023/12/25 21:59:02;;;;;;;10.07;5.78;;;;;;;18.76;77.74;99968.84;20823913;28;20060;-67
2023/12/25 22:09:04;;;;;;;10.85;5.70;;;;;;;18.72;77.36;99945.91;20811333;28;20056;-67
2023/12/25 22:19:06;;;;;;;10.30;5.68;;;;;;;18.66;77.66;99944.75;20823156;28;20076;-66
2023/12/25 22:29:08;;;;;;;8.18;4.55;;;;;;;18.60;77.62;99933.75;20848325;28;20050;-67
2023/12/25 22:39:11;;;;;;;8.85;4.18;;;;;;;18.55;77.24;99928.84;20798638;28;20049;-66
2023/12/25 22:49:13;;;;;;;7.13;4.30;;;;;;;18.52;77.01;99940.81;20852023;28;20128;-66
2023/12/25 22:59:16;;;;;;;7.88;3.90;;;;;;;18.51;76.84;99919.41;20811733;28;20053;-67
2023/12/25 23:09:18;;;;;;;7.93;3.50;;;;;;;18.46;76.69;99908.28;20803459;28;20072;-67
2023/12/25 23:19:19;;;;;;;6.90;3.33;;;;;;;18.43;76.22;99904.09;20848879;28;20063;-67
2023/12/25 23:29:21;;;;;;;5.43;2.80;;;;;;;18.45;75.95;99902.06;20812465;28;20060;-66
2023/12/25 23:39:23;;;;;;;4.93;2.88;;;;;;;18.46;75.47;99884.03;20808364;28;20056;-66
2023/12/25 23:49:25;;;;;;;4.90;2.25;;;;;;;18.44;74.92;99865.34;20798338;28;20127;-67
2023/12/25 23:59:27;;;;;;;4.07;2.28;;;;;;;18.47;74.53;99856.06;20795540;28;20505;-67
